Terminal Aerodrome Forecast
Issued by NWS Central Illinois

Home | Current Version | Previous Version | Text Only | Print | Product List | Glossary On
Versions: 1 2 3 4 5 6 7 8 9 10 11 12 13 14 15 16 17 18 19 20 21 22 23
000
FTUS43 KILX 162300
TAFPIA
TAF
KPIA 162333Z 1700/1724 17018G26KT P6SM SCT150
     FM170100 16011KT P6SM SCT120 BKN250
     FM170700 18008KT P6SM BKN090
     FM171400 25010KT P6SM SCT030 OVC070
     FM171900 24008KT P6SM OVC050=

USA.gov is the U.S. government's official web portal to all federal, state and local government web resources and services.